Belden, North Dakota
Current Conditions -  °F | °C
As of 1:35 PM on Sunday 23 Nov 2014 (Local Time) from K08D Reporting Station
Light Snow Light Snow  
Wind Chill: -1°   Ceiling: 3400
Heat Index: 16°   Visibility: 6mi
Dew Point: 10°   Wind: 18mph
Humidity: 79%   Direction: 320°NW
Pressure: 29.63"   Gusts: 31mph
Location:  48.3212°N, 102.393°W
Report Text: K08D 231935Z AUTO 32016G27KT 6SM -SN SCT025 BKN034 M09/M12 A2963 RMK AO2 P0004
Loading
Personal Weather Stations






























Interactive Weather Map New forecast layout! Learn more

10-Day Weather Forecast

Advertisements
Track Severe Weather on mobile